createdAt,value
2023-01-09T00:00:01.019Z,6.8
2023-01-09T00:03:00.968Z,6.5
2023-01-09T00:06:01.087Z,6.5
2023-01-09T00:09:00.960Z,6.5
2023-01-09T00:12:01.018Z,6.5
2023-01-09T00:15:01.036Z,6.5
2023-01-09T00:18:01.002Z,6.5
2023-01-09T00:21:01.044Z,6.5
2023-01-09T00:24:00.990Z,6.5
2023-01-09T00:27:01.046Z,6.2
2023-01-09T00:30:01.070Z,6.2
2023-01-09T00:33:01.008Z,6.2
2023-01-09T00:36:00.987Z,6.2
2023-01-09T00:39:00.983Z,6.2
2023-01-09T00:42:00.962Z,6.2
2023-01-09T00:45:01.004Z,6
2023-01-09T00:48:01.017Z,6
2023-01-09T00:51:00.966Z,6
2023-01-09T00:54:00.953Z,6
2023-01-09T00:57:00.991Z,6
2023-01-09T01:00:01.080Z,6
2023-01-09T01:03:01.156Z,6
2023-01-09T01:06:00.923Z,6
2023-01-09T01:09:00.984Z,6
2023-01-09T01:12:00.982Z,6
2023-01-09T01:15:01.137Z,6
2023-01-09T01:18:00.961Z,6
2023-01-09T01:21:01.011Z,6
2023-01-09T01:24:00.997Z,6
2023-01-09T01:27:00.994Z,6
2023-01-09T01:30:00.983Z,6
2023-01-09T01:33:00.929Z,6.1
2023-01-09T01:36:00.936Z,6.1
2023-01-09T01:39:00.963Z,6.1
2023-01-09T01:42:01.005Z,6.1
2023-01-09T01:45:01.066Z,6.1
2023-01-09T01:48:01.012Z,6.1
2023-01-09T01:51:00.975Z,6.1
2023-01-09T01:54:01.089Z,6.1
2023-01-09T01:57:00.928Z,6.1
2023-01-09T02:00:01.089Z,6.1
2023-01-09T02:03:01.129Z,6.1
2023-01-09T02:06:01.027Z,6.1
2023-01-09T02:09:00.981Z,6.1
2023-01-09T02:12:01.099Z,6.1
2023-01-09T02:15:01.467Z,6.1
2023-01-09T02:18:00.987Z,6.1
2023-01-09T02:21:00.963Z,6.1
2023-01-09T02:24:01.062Z,6.1
2023-01-09T02:27:01.051Z,6.1
2023-01-09T02:30:01.008Z,6.1
2023-01-09T02:33:00.978Z,6.3
2023-01-09T02:36:01.009Z,6.3
2023-01-09T02:39:01.616Z,6.4
2023-01-09T02:42:00.958Z,6.4
2023-01-09T02:45:00.973Z,6.4
2023-01-09T02:48:00.985Z,6.4
2023-01-09T02:51:00.985Z,6.5
2023-01-09T02:54:00.960Z,6.5
2023-01-09T02:57:00.980Z,6.5
2023-01-09T03:00:01.075Z,6.5
2023-01-09T03:03:01.092Z,6.5
2023-01-09T03:06:00.983Z,6.5
2023-01-09T03:09:00.977Z,6.5
2023-01-09T03:12:01.031Z,6.5
2023-01-09T03:15:00.947Z,6.5
2023-01-09T03:18:01.010Z,6.5
2023-01-09T03:21:00.979Z,6.5
2023-01-09T03:24:00.998Z,6.5
2023-01-09T03:27:01.128Z,6.5
2023-01-09T03:30:00.986Z,6.5
2023-01-09T03:33:01.141Z,6.5
2023-01-09T03:36:00.955Z,6.5
2023-01-09T03:39:01.009Z,6.6
2023-01-09T03:42:01.021Z,6.6
2023-01-09T03:45:00.944Z,6.6
2023-01-09T03:48:01.113Z,6.6
2023-01-09T03:51:00.954Z,6.6
2023-01-09T03:54:00.992Z,6.6
2023-01-09T03:57:00.960Z,6.6
2023-01-09T04:00:01.031Z,6.6
2023-01-09T04:03:01.045Z,6.6
2023-01-09T04:06:01.052Z,6.6
2023-01-09T04:09:01.004Z,6.6
2023-01-09T04:12:00.987Z,6.6
2023-01-09T04:15:00.962Z,6.6
2023-01-09T04:18:01.034Z,6.6
2023-01-09T04:21:00.954Z,6.6
2023-01-09T04:24:00.979Z,6.6
2023-01-09T04:27:01.010Z,6.6
2023-01-09T04:30:00.981Z,6.7
2023-01-09T04:33:01.017Z,6.7
2023-01-09T04:36:01.008Z,6.7
2023-01-09T04:39:01.084Z,6.7
2023-01-09T04:42:00.951Z,6.7
2023-01-09T04:45:01.027Z,6.7
2023-01-09T04:48:01.056Z,6.7
2023-01-09T04:51:00.986Z,6.7
2023-01-09T04:54:00.995Z,6.7
2023-01-09T04:57:01.012Z,6.7
2023-01-09T05:00:01.198Z,6.7
2023-01-09T05:03:01.037Z,6.7
2023-01-09T05:06:00.975Z,6.7
2023-01-09T05:09:01.020Z,6.7
2023-01-09T05:12:02.100Z,6.7
2023-01-09T05:15:01.081Z,6.7
2023-01-09T05:18:00.951Z,6.7
2023-01-09T05:21:00.971Z,6.7
2023-01-09T05:24:01.008Z,6.7
2023-01-09T05:27:00.983Z,6.7
2023-01-09T05:30:01.083Z,6.7
2023-01-09T05:33:00.955Z,6.7
2023-01-09T05:36:01.106Z,6.7
2023-01-09T05:39:00.995Z,6.7
2023-01-09T05:42:00.947Z,6.8
2023-01-09T05:45:01.034Z,6.8
2023-01-09T05:48:01.009Z,6.8
2023-01-09T05:51:01.019Z,6.8
2023-01-09T05:54:01.062Z,6.8
2023-01-09T05:57:00.982Z,6.8
2023-01-09T06:00:01.085Z,6.8
2023-01-09T06:03:01.103Z,6.8
2023-01-09T06:06:01.017Z,6.8
2023-01-09T06:09:01.073Z,6.8
2023-01-09T06:12:00.996Z,6.8
2023-01-09T06:15:01.005Z,6.8
2023-01-09T06:18:01.050Z,6.8
2023-01-09T06:21:00.995Z,7
2023-01-09T06:24:01.115Z,7
2023-01-09T06:27:01.020Z,7
2023-01-09T06:30:01.077Z,7
2023-01-09T06:33:00.992Z,7
2023-01-09T06:36:00.991Z,7
2023-01-09T06:39:01.040Z,7
2023-01-09T06:42:01.100Z,7.1
2023-01-09T06:45:00.978Z,7.1
2023-01-09T06:48:01.046Z,7.1
2023-01-09T06:51:01.023Z,7.1
2023-01-09T06:54:00.958Z,7.1
2023-01-09T06:57:01.051Z,7.1
2023-01-09T07:00:01.157Z,7.1
2023-01-09T07:03:01.003Z,7.1
2023-01-09T07:06:00.961Z,7.1
2023-01-09T07:09:01.017Z,7.1
2023-01-09T07:12:01.002Z,7.2
2023-01-09T07:15:01.007Z,7.2
2023-01-09T07:18:01.024Z,7.2
2023-01-09T07:21:01.041Z,7.2
2023-01-09T07:24:01.070Z,7.2
2023-01-09T07:27:01.053Z,7.2
2023-01-09T07:30:01.093Z,7.2
2023-01-09T07:33:04.235Z,7.2
2023-01-09T07:36:01.010Z,7.2
2023-01-09T07:39:01.119Z,7.2
2023-01-09T07:42:00.993Z,7.2
2023-01-09T07:45:01.057Z,7.2
2023-01-09T07:48:01.101Z,7.2
2023-01-09T07:51:01.090Z,7.2
2023-01-09T07:54:01.094Z,7
2023-01-09T07:57:01.206Z,7
2023-01-09T08:00:01.930Z,7
2023-01-09T08:03:01.156Z,7
2023-01-09T08:06:01.168Z,7
2023-01-09T08:09:01.032Z,7
2023-01-09T08:12:01.057Z,7
2023-01-09T08:15:01.141Z,6.9
2023-01-09T08:18:01.129Z,6.9
2023-01-09T08:21:01.075Z,6.9
2023-01-09T08:24:01.087Z,6.9
2023-01-09T08:27:00.994Z,6.8
2023-01-09T08:30:01.364Z,6.8
2023-01-09T08:33:00.999Z,6.8
2023-01-09T08:36:01.285Z,6.8
2023-01-09T08:39:01.051Z,6.8
2023-01-09T08:42:01.098Z,6.8
2023-01-09T08:45:00.981Z,6.8
2023-01-09T08:48:01.041Z,6.8
2023-01-09T08:51:01.054Z,6.8
2023-01-09T08:54:01.597Z,6.8
2023-01-09T08:57:01.485Z,6.8
2023-01-09T09:00:01.814Z,6.7
2023-01-09T09:03:01.568Z,6.7
2023-01-09T09:06:01.386Z,6.7
2023-01-09T09:09:01.376Z,6.7
2023-01-09T09:12:01.241Z,6.7
2023-01-09T09:15:02.487Z,6.7
2023-01-09T09:18:01.042Z,6.7
2023-01-09T09:21:00.947Z,6.7
2023-01-09T09:24:01.065Z,6.7
2023-01-09T09:27:00.871Z,6.7
2023-01-09T09:30:01.025Z,6.7
2023-01-09T09:33:00.925Z,6.7
2023-01-09T09:36:00.995Z,6.7
2023-01-09T09:39:00.920Z,6.7
2023-01-09T09:42:00.881Z,6.7
2023-01-09T09:45:00.958Z,6.7
2023-01-09T09:48:00.931Z,6.7
2023-01-09T09:51:00.994Z,6.7
2023-01-09T09:54:01.096Z,6.7
2023-01-09T09:57:00.933Z,6.7
2023-01-09T10:00:01.033Z,7.2
2023-01-09T10:03:01.103Z,7.2
2023-01-09T10:06:00.843Z,7.2
2023-01-09T10:09:01.065Z,7.2
2023-01-09T10:12:00.892Z,7.2
2023-01-09T10:15:00.912Z,7.2
2023-01-09T10:18:00.943Z,7.2
2023-01-09T10:21:01.005Z,7.2
2023-01-09T10:24:01.156Z,7.2
2023-01-09T10:27:00.902Z,7.2
2023-01-09T10:30:00.962Z,7.2
2023-01-09T10:33:00.997Z,7.2
2023-01-09T10:36:00.948Z,7.2
2023-01-09T10:39:00.969Z,7.2
2023-01-09T10:42:00.990Z,7.2
2023-01-09T10:45:00.911Z,7.2
2023-01-09T10:48:00.950Z,7.2
2023-01-09T10:51:00.881Z,7.2
2023-01-09T10:54:00.950Z,7.7
2023-01-09T10:57:00.956Z,7.7
2023-01-09T11:00:01.206Z,7.7
2023-01-09T11:03:01.059Z,7.7
2023-01-09T11:06:01.026Z,7.7
2023-01-09T11:09:00.915Z,7.7
2023-01-09T11:12:00.935Z,7.7
2023-01-09T11:15:01.012Z,7.7
2023-01-09T11:18:00.966Z,7.8
2023-01-09T11:21:00.943Z,7.8
2023-01-09T11:24:00.986Z,7.8
2023-01-09T11:27:00.875Z,7.8
2023-01-09T11:30:01.109Z,7.8
2023-01-09T11:33:00.895Z,7.8
2023-01-09T11:36:00.931Z,7.8
2023-01-09T11:39:00.943Z,7.8
2023-01-09T11:42:00.931Z,7.8
2023-01-09T11:45:00.928Z,7.8
2023-01-09T11:48:00.982Z,8
2023-01-09T11:51:00.999Z,8
2023-01-09T11:54:00.894Z,8
2023-01-09T11:57:00.954Z,8
2023-01-09T12:00:01.092Z,8
2023-01-09T12:03:01.003Z,8
2023-01-09T12:06:00.974Z,8.1
2023-01-09T12:09:01.013Z,8.1
2023-01-09T12:12:00.862Z,8.1
2023-01-09T12:15:01.007Z,8.1
2023-01-09T12:18:00.924Z,8.1
2023-01-09T12:21:01.093Z,8.1
2023-01-09T12:24:00.972Z,8.1
2023-01-09T12:27:00.965Z,8.1
2023-01-09T12:30:01.070Z,8.1
2023-01-09T12:33:00.923Z,8.1
2023-01-09T12:36:00.982Z,8.1
2023-01-09T12:39:00.961Z,8.1
2023-01-09T12:42:00.885Z,8.1
2023-01-09T12:45:01.009Z,8.1
2023-01-09T12:48:00.917Z,8.1
2023-01-09T12:51:00.951Z,8.1
2023-01-09T12:54:01.082Z,8.1
2023-01-09T12:57:01.018Z,8.1
2023-01-09T13:00:01.065Z,8.1
2023-01-09T13:03:13.178Z,8.5
2023-01-09T13:06:00.955Z,8.5
2023-01-09T13:09:00.977Z,8.5
2023-01-09T13:12:00.934Z,8.5
2023-01-09T13:15:00.957Z,8.5
2023-01-09T13:18:00.913Z,8.5
2023-01-09T13:21:01.002Z,8.5
2023-01-09T13:24:01.037Z,8.5
2023-01-09T13:27:00.924Z,8.5
2023-01-09T13:30:01.025Z,8.6
2023-01-09T13:33:00.922Z,8.6
2023-01-09T13:36:00.982Z,8.6
2023-01-09T13:39:00.959Z,8.6
2023-01-09T13:42:00.981Z,8.6
2023-01-09T13:45:00.931Z,8.6
2023-01-09T13:48:01.014Z,8.6
2023-01-09T13:51:00.939Z,8.6
2023-01-09T13:54:00.978Z,8.6
2023-01-09T13:57:00.979Z,8.6
2023-01-09T14:00:01.164Z,8.6
2023-01-09T14:03:00.937Z,8.6
2023-01-09T14:06:01.011Z,8.6
2023-01-09T14:09:00.960Z,8.4
2023-01-09T14:12:00.969Z,8.4
2023-01-09T14:15:00.865Z,8.4
2023-01-09T14:18:00.947Z,8.4
2023-01-09T14:21:00.903Z,8.4
2023-01-09T14:24:06.609Z,8.4
2023-01-09T14:27:00.918Z,8.4
2023-01-09T14:30:01.034Z,8.4
2023-01-09T14:33:00.976Z,8.4
2023-01-09T14:36:00.990Z,8.5
2023-01-09T14:39:00.968Z,8.5
2023-01-09T14:42:01.007Z,8.5
2023-01-09T14:45:01.042Z,8.5
2023-01-09T14:48:01.008Z,8.5
2023-01-09T14:51:00.993Z,8.5
2023-01-09T14:57:01.499Z,8.5
2023-01-09T15:00:01.534Z,8.4
2023-01-09T15:03:01.499Z,8.4
2023-01-09T15:06:01.469Z,8.4
2023-01-09T15:09:01.664Z,8.4
2023-01-09T15:12:01.426Z,8.4
2023-01-09T15:15:01.510Z,8.4
2023-01-09T15:18:01.363Z,8.3
2023-01-09T15:21:01.426Z,8.3
2023-01-09T15:24:01.389Z,8.3
2023-01-09T15:27:01.333Z,8.3
2023-01-09T15:30:01.395Z,8.3
2023-01-09T15:33:01.288Z,8.3
2023-01-09T15:36:01.311Z,8.3
2023-01-09T15:39:01.461Z,8.3
2023-01-09T15:42:01.282Z,8.3
2023-01-09T15:45:01.370Z,8.3
2023-01-09T15:48:01.317Z,8.3
2023-01-09T15:51:01.257Z,8.1
2023-01-09T15:54:01.385Z,8.1
2023-01-09T15:57:01.439Z,8.1
2023-01-09T16:00:01.360Z,8.1
2023-01-09T16:03:01.320Z,8.1
2023-01-09T16:06:01.399Z,8.1
2023-01-09T16:09:01.476Z,8.1
2023-01-09T16:12:01.379Z,8.1
2023-01-09T16:15:01.372Z,8.1
2023-01-09T16:18:01.346Z,8.1
2023-01-09T16:21:01.264Z,8.1
2023-01-09T16:24:01.344Z,8.1
2023-01-09T16:27:01.316Z,8.1
2023-01-09T16:30:01.505Z,8.1
2023-01-09T16:33:01.300Z,8.1
2023-01-09T16:36:01.343Z,8.1
2023-01-09T16:39:01.284Z,8
2023-01-09T16:42:01.309Z,8
2023-01-09T16:45:01.422Z,8
2023-01-09T16:48:01.279Z,8
2023-01-09T16:51:01.290Z,7.9
2023-01-09T16:54:01.312Z,7.9
2023-01-09T16:57:01.304Z,7.9
2023-01-09T17:00:01.302Z,7.9
2023-01-09T17:03:01.345Z,7.9
2023-01-09T17:06:01.291Z,7.9
2023-01-09T17:09:01.294Z,7.9
2023-01-09T17:12:01.342Z,7.9
2023-01-09T17:15:01.341Z,7.9
2023-01-09T17:18:01.335Z,7.8
2023-01-09T17:21:01.293Z,7.8
2023-01-09T17:24:01.293Z,7.8
2023-01-09T17:27:01.331Z,7.8
2023-01-09T17:30:18.181Z,7.8
2023-01-09T17:33:01.462Z,7.8
2023-01-09T17:36:01.286Z,7.8
2023-01-09T17:39:01.424Z,7.8
2023-01-09T17:42:01.311Z,7.8
2023-01-09T17:45:01.305Z,7.9
2023-01-09T17:48:01.299Z,7.9
2023-01-09T17:51:01.400Z,7.8
2023-01-09T17:54:01.268Z,7.8
2023-01-09T17:57:01.294Z,7.8
2023-01-09T18:00:01.438Z,7.8
2023-01-09T18:03:01.230Z,7.8
2023-01-09T18:06:01.250Z,7.8
2023-01-09T18:09:01.436Z,7.8
2023-01-09T18:12:01.826Z,7.8
2023-01-09T18:15:01.371Z,7.9
2023-01-09T18:18:01.336Z,7.9
2023-01-09T18:21:01.239Z,7.9
2023-01-09T18:24:01.403Z,7.9
2023-01-09T18:27:01.326Z,7.9
2023-01-09T18:30:05.492Z,7.9
2023-01-09T18:33:01.305Z,7.9
2023-01-09T18:36:01.513Z,7.9
2023-01-09T18:39:01.447Z,7.9
2023-01-09T18:42:01.453Z,7.8
2023-01-09T18:45:01.506Z,7.8
2023-01-09T18:48:01.263Z,7.8
2023-01-09T18:51:01.471Z,7.8
2023-01-09T18:54:01.353Z,7.6
2023-01-09T18:57:01.435Z,7.6
2023-01-09T19:00:01.286Z,7.6
2023-01-09T19:03:01.217Z,7.6
2023-01-09T19:06:01.422Z,7.6
2023-01-09T19:09:01.259Z,7.6
2023-01-09T19:12:01.365Z,7.6
2023-01-09T19:15:01.264Z,7.6
2023-01-09T19:18:01.322Z,7.6
2023-01-09T19:21:01.376Z,7.5
2023-01-09T19:24:01.332Z,7.5
2023-01-09T19:27:01.254Z,7.5
2023-01-09T19:30:01.455Z,7.5
2023-01-09T19:33:01.284Z,7.5
2023-01-09T19:36:01.358Z,7.5
2023-01-09T19:39:01.334Z,7.3
2023-01-09T19:42:01.396Z,7.3
2023-01-09T19:45:01.486Z,7.3
2023-01-09T19:48:01.334Z,7.3
2023-01-09T19:51:01.343Z,7.3
2023-01-09T19:57:01.225Z,7.3
2023-01-09T20:00:01.388Z,7.2
2023-01-09T20:03:01.313Z,7.2
2023-01-09T20:06:01.341Z,7.2
2023-01-09T20:09:01.254Z,7.2
2023-01-09T20:12:01.370Z,7.2
2023-01-09T20:15:01.446Z,7.2
2023-01-09T20:18:01.314Z,7.2
2023-01-09T20:21:01.527Z,7.2
2023-01-09T20:24:01.338Z,7.2
2023-01-09T20:27:01.282Z,7.2
2023-01-09T20:30:01.482Z,7.2
2023-01-09T20:33:01.411Z,7.2
2023-01-09T20:36:01.433Z,7.2
2023-01-09T20:39:01.298Z,7.2
2023-01-09T20:42:01.294Z,7.2
2023-01-09T20:45:01.453Z,7.2
2023-01-09T20:48:01.292Z,7.2
2023-01-09T20:51:01.344Z,7.2
2023-01-09T20:54:01.323Z,7.2
2023-01-09T20:57:01.304Z,7.1
2023-01-09T21:00:01.386Z,7.1
2023-01-09T21:03:01.271Z,7.1
2023-01-09T21:06:01.374Z,7.1
2023-01-09T21:09:01.332Z,7
2023-01-09T21:12:01.323Z,7
2023-01-09T21:15:01.301Z,7
2023-01-09T21:18:01.701Z,7
2023-01-09T21:21:01.285Z,7
2023-01-09T21:24:01.331Z,7
2023-01-09T21:27:01.253Z,7
2023-01-09T21:30:01.354Z,7
2023-01-09T21:33:01.328Z,7
2023-01-09T21:36:01.413Z,7
2023-01-09T21:39:01.272Z,7
2023-01-09T21:42:01.356Z,7
2023-01-09T21:45:01.610Z,7
2023-01-09T21:48:01.342Z,7
2023-01-09T21:51:01.225Z,7
2023-01-09T21:54:01.302Z,7
2023-01-09T21:57:01.300Z,7
2023-01-09T22:00:01.363Z,6.9
2023-01-09T22:03:01.302Z,6.9
2023-01-09T22:06:01.265Z,6.9
2023-01-09T22:09:01.249Z,6.9
2023-01-09T22:12:01.335Z,6.9
2023-01-09T22:15:01.339Z,6.9
2023-01-09T22:18:01.258Z,6.9
2023-01-09T22:21:01.278Z,6.9
2023-01-09T22:24:01.342Z,6.9
2023-01-09T22:27:01.279Z,6.9
2023-01-09T22:30:01.288Z,6.8
2023-01-09T22:33:01.287Z,6.8
2023-01-09T22:36:01.291Z,6.8
2023-01-09T22:39:01.655Z,6.8
2023-01-09T22:42:01.410Z,6.8
2023-01-09T22:45:01.327Z,6.8
2023-01-09T22:48:01.423Z,6.8
2023-01-09T22:51:01.265Z,6.8
2023-01-09T22:54:01.294Z,6.8
2023-01-09T22:57:01.618Z,6.8
2023-01-09T23:00:01.875Z,6.8
2023-01-09T23:03:01.358Z,6.8
2023-01-09T23:06:01.360Z,6.8
2023-01-09T23:09:01.326Z,6.8
2023-01-09T23:12:01.306Z,6.8
2023-01-09T23:15:01.225Z,6.8
2023-01-09T23:18:01.294Z,6.8
2023-01-09T23:21:01.358Z,6.8
2023-01-09T23:24:01.389Z,6.8
2023-01-09T23:27:01.244Z,6.8
2023-01-09T23:30:01.251Z,6.8
2023-01-09T23:33:01.449Z,6.8
2023-01-09T23:36:01.300Z,6.9
2023-01-09T23:39:01.328Z,6.9
2023-01-09T23:42:01.371Z,6.9
2023-01-09T23:45:01.352Z,6.9
2023-01-09T23:48:01.282Z,6.9
2023-01-09T23:51:01.206Z,6.9
2023-01-09T23:54:01.369Z,6.8
2023-01-09T23:57:01.244Z,6.8
